createdAt,value
2019-03-22T00:00:31.401Z,11.13
2019-03-22T00:03:01.470Z,11.17
2019-03-22T00:05:31.563Z,11.20
2019-03-22T00:08:01.685Z,10.57
2019-03-22T00:10:31.769Z,10.70
2019-03-22T00:13:01.802Z,10.90
2019-03-22T00:15:31.904Z,10.63
2019-03-22T00:18:02.835Z,10.47
2019-03-22T00:20:33.149Z,10.30
2019-03-22T00:23:03.199Z,10.90
2019-03-22T00:25:33.277Z,9.07
2019-03-22T00:28:03.364Z,10.63
2019-03-22T00:30:33.616Z,10.07
2019-03-22T00:33:03.627Z,9.93
2019-03-22T00:35:33.809Z,11.07
2019-03-22T00:38:03.886Z,9.53
2019-03-22T00:40:33.944Z,9.87
2019-03-22T00:43:03.979Z,10.47
2019-03-22T00:45:34.108Z,10.43
2019-03-22T00:48:04.205Z,10.37
2019-03-22T00:50:34.276Z,9.87
2019-03-22T00:53:04.784Z,10.57
2019-03-22T00:55:35.039Z,9.87
2019-03-22T00:58:05.179Z,10.20
2019-03-22T01:00:35.566Z,10.47
2019-03-22T01:03:05.929Z,11.07
2019-03-22T01:05:36.088Z,11.30
2019-03-22T01:08:06.461Z,10.13
2019-03-22T01:10:36.562Z,11.17
2019-03-22T01:13:09.294Z,10.47
2019-03-22T01:15:42.470Z,10.47
2019-03-22T01:18:12.660Z,9.70
2019-03-22T01:20:43.008Z,10.40
2019-03-22T01:23:13.696Z,11.00
2019-03-22T01:25:43.768Z,9.93
2019-03-22T01:28:13.979Z,11.27
2019-03-22T01:30:44.292Z,10.30
2019-03-22T01:33:14.492Z,10.30
2019-03-22T01:35:44.811Z,10.33
2019-03-22T01:38:15.012Z,10.33
2019-03-22T01:40:45.051Z,9.50
2019-03-22T01:43:15.330Z,10.13
2019-03-22T01:45:46.048Z,11.07
2019-03-22T01:48:16.213Z,10.37
2019-03-22T01:50:46.407Z,10.63
2019-03-22T01:53:16.891Z,11.47
2019-03-22T01:55:47.051Z,10.47
2019-03-22T01:58:17.249Z,12.27
2019-03-22T02:00:47.508Z,11.43
2019-03-22T02:03:17.687Z,10.57
2019-03-22T02:05:47.780Z,11.13
2019-03-22T02:08:18.050Z,12.20
2019-03-22T02:10:48.421Z,9.60
2019-03-22T02:13:20.743Z,9.23
2019-03-22T02:15:50.594Z,9.80
2019-03-22T02:18:20.676Z,10.30
2019-03-22T02:20:51.133Z,10.50
2019-03-22T02:23:21.209Z,10.03
2019-03-22T02:25:51.253Z,10.23
2019-03-22T02:28:21.320Z,9.77
2019-03-22T02:30:51.604Z,9.90
2019-03-22T02:33:22.073Z,8.67
2019-03-22T02:35:52.349Z,10.17
2019-03-22T02:38:22.514Z,10.30
2019-03-22T02:40:52.545Z,9.90
2019-03-22T02:43:26.557Z,10.50
2019-03-22T02:45:56.602Z,10.10
2019-03-22T02:48:26.788Z,9.03
2019-03-22T02:50:56.845Z,11.20
2019-03-22T02:53:27.192Z,10.17
2019-03-22T02:55:58.652Z,11.30
2019-03-22T02:58:28.718Z,10.47
2019-03-22T03:00:59.395Z,10.87
2019-03-22T03:03:29.648Z,10.73
2019-03-22T03:06:00.101Z,11.00
2019-03-22T03:08:30.429Z,11.20
2019-03-22T03:11:00.553Z,11.47
2019-03-22T03:13:31.006Z,11.63
2019-03-22T03:16:01.106Z,11.30
2019-03-22T03:18:31.329Z,11.70
2019-03-22T03:21:01.615Z,11.23
2019-03-22T03:23:31.709Z,11.30
2019-03-22T03:26:02.093Z,10.23
2019-03-22T03:28:37.237Z,11.00
2019-03-22T03:31:04.752Z,11.20
2019-03-22T03:33:34.979Z,10.47
2019-03-22T03:36:05.236Z,10.87
2019-03-22T03:38:35.500Z,9.27
2019-03-22T03:41:05.786Z,11.07
2019-03-22T03:43:35.861Z,10.53
2019-03-22T03:46:06.311Z,10.73
2019-03-22T03:48:36.383Z,9.43
2019-03-22T03:51:06.509Z,10.63
2019-03-22T03:53:36.641Z,10.57
2019-03-22T03:56:06.937Z,10.23
2019-03-22T03:58:51.149Z,11.03
2019-03-22T04:01:09.003Z,10.83
2019-03-22T04:03:39.248Z,11.67
2019-03-22T04:06:09.270Z,9.40
2019-03-22T04:08:39.369Z,11.17
2019-03-22T04:11:09.463Z,10.97
2019-03-22T04:13:39.607Z,11.87
2019-03-22T04:16:09.894Z,11.60
2019-03-22T04:18:39.981Z,10.57
2019-03-22T04:21:10.041Z,11.10
2019-03-22T04:23:40.713Z,10.50
2019-03-22T04:26:10.739Z,11.27
2019-03-22T04:28:40.822Z,11.37
2019-03-22T04:31:10.882Z,10.90
2019-03-22T04:33:41.180Z,12.23
2019-03-22T04:36:11.505Z,12.00
2019-03-22T04:38:41.594Z,12.70
2019-03-22T04:41:11.627Z,12.07
2019-03-22T04:43:41.703Z,11.23
2019-03-22T04:46:13.262Z,11.30
2019-03-22T04:48:44.438Z,12.17
2019-03-22T04:51:14.616Z,11.57
2019-03-22T04:53:53.625Z,12.30
2019-03-22T04:56:24.874Z,11.67
2019-03-22T04:58:55.752Z,12.33
2019-03-22T05:01:27.355Z,11.17
2019-03-22T05:04:00.343Z,12.30
2019-03-22T05:06:33.134Z,13.27
2019-03-22T05:09:04.867Z,11.40
2019-03-22T05:11:38.823Z,11.23
2019-03-22T05:14:09.238Z,11.13
2019-03-22T05:16:42.292Z,11.60
2019-03-22T05:19:14.421Z,12.23
2019-03-22T05:21:45.629Z,10.83
2019-03-22T05:24:18.448Z,12.27
2019-03-22T05:26:50.620Z,13.27
2019-03-22T05:29:30.501Z,12.37
2019-03-22T05:32:05.760Z,13.17
2019-03-22T05:34:36.250Z,12.67
2019-03-22T05:37:06.495Z,12.77
2019-03-22T05:39:36.659Z,12.53
2019-03-22T05:42:06.934Z,12.17
2019-03-22T05:44:37.129Z,12.67
2019-03-22T05:47:07.282Z,12.30
2019-03-22T05:49:37.420Z,12.60
2019-03-22T05:52:09.389Z,13.17
2019-03-22T05:54:39.635Z,12.87
2019-03-22T05:57:13.763Z,13.20
2019-03-22T05:59:42.711Z,11.27
2019-03-22T06:02:13.470Z,12.00
2019-03-22T06:04:43.681Z,11.67
2019-03-22T06:07:14.081Z,10.43
2019-03-22T06:09:44.399Z,11.83
2019-03-22T06:12:14.517Z,11.40
2019-03-22T06:14:44.629Z,13.50
2019-03-22T06:17:14.892Z,13.37
2019-03-22T06:19:44.978Z,11.93
2019-03-22T06:22:15.400Z,11.90
2019-03-22T06:24:45.567Z,12.10
2019-03-22T06:27:16.117Z,12.30
2019-03-22T06:29:54.276Z,11.70
2019-03-22T06:32:18.051Z,12.63
2019-03-22T06:34:48.486Z,11.93
2019-03-22T06:37:21.592Z,12.20
2019-03-22T06:39:51.759Z,12.63
2019-03-22T06:42:22.020Z,9.57
2019-03-22T06:44:57.349Z,10.60
2019-03-22T06:47:27.544Z,11.60
2019-03-22T06:49:57.815Z,10.17
2019-03-22T06:52:28.206Z,10.20
2019-03-22T06:54:58.434Z,11.80
2019-03-22T06:57:29.033Z,8.43
2019-03-22T07:00:06.351Z,10.50
2019-03-22T07:02:32.380Z,10.33
2019-03-22T07:05:02.608Z,11.30
2019-03-22T07:07:32.815Z,10.13
2019-03-22T07:10:03.174Z,11.47
2019-03-22T07:12:33.434Z,10.57
2019-03-22T07:15:03.826Z,11.07
2019-03-22T07:17:34.308Z,10.97
2019-03-22T07:20:05.141Z,10.83
2019-03-22T07:22:35.411Z,10.57
2019-03-22T07:25:07.218Z,10.47
2019-03-22T07:27:37.427Z,11.07
2019-03-22T07:30:17.895Z,10.37
2019-03-22T07:32:40.023Z,10.73
2019-03-22T07:35:10.294Z,10.60
2019-03-22T07:37:40.669Z,10.17
2019-03-22T07:40:11.549Z,10.47
2019-03-22T07:42:41.807Z,10.90
2019-03-22T07:45:12.395Z,9.93
2019-03-22T07:47:42.741Z,10.07
2019-03-22T07:50:13.692Z,10.17
2019-03-22T07:52:43.869Z,10.50
2019-03-22T07:55:14.144Z,9.43
2019-03-22T07:57:44.398Z,9.43
2019-03-22T08:00:14.629Z,9.60
2019-03-22T08:02:44.884Z,10.07
2019-03-22T08:05:14.957Z,9.57
2019-03-22T08:07:45.722Z,9.57
2019-03-22T08:10:16.638Z,9.90
2019-03-22T08:12:47.142Z,9.60
2019-03-22T08:15:29.348Z,10.17
2019-03-22T08:18:00.035Z,9.63
2019-03-22T08:20:31.014Z,9.50
2019-03-22T08:23:05.344Z,8.90
2019-03-22T08:25:35.691Z,9.03
2019-03-22T08:28:06.088Z,9.03
2019-03-22T08:30:42.944Z,9.23
2019-03-22T08:33:08.067Z,8.73
2019-03-22T08:35:38.242Z,9.53
2019-03-22T08:38:08.467Z,9.13
2019-03-22T08:40:41.681Z,8.77
2019-03-22T08:43:11.961Z,8.60
2019-03-22T08:45:42.235Z,8.43
2019-03-22T08:48:12.353Z,8.13
2019-03-22T08:50:42.707Z,8.23
2019-03-22T08:53:12.854Z,8.20
2019-03-22T08:55:43.078Z,8.30
2019-03-22T08:58:13.418Z,8.57
2019-03-22T09:00:56.663Z,7.87
2019-03-22T09:03:17.829Z,8.27
2019-03-22T09:05:56.769Z,7.80
2019-03-22T09:08:26.469Z,7.77
2019-03-22T09:10:56.672Z,7.80
2019-03-22T09:13:27.134Z,8.20
2019-03-22T09:16:00.531Z,8.27
2019-03-22T09:18:30.711Z,8.07
2019-03-22T09:21:00.923Z,7.20
2019-03-22T09:23:31.269Z,8.57
2019-03-22T09:26:01.608Z,7.40
2019-03-22T09:28:31.893Z,7.50
2019-03-22T09:31:10.179Z,7.13
2019-03-22T09:33:34.147Z,7.37
2019-03-22T09:36:04.321Z,7.43
2019-03-22T09:38:34.571Z,7.90
2019-03-22T09:41:05.457Z,7.63
2019-03-22T09:43:36.344Z,7.10
2019-03-22T09:46:06.880Z,7.17
2019-03-22T09:48:38.269Z,6.87
2019-03-22T09:51:08.555Z,6.13
2019-03-22T09:53:39.115Z,6.57
2019-03-22T09:56:11.370Z,6.23
2019-03-22T09:58:41.753Z,6.50
2019-03-22T10:01:23.650Z,6.50
2019-03-22T10:03:46.921Z,6.50
2019-03-22T10:06:17.290Z,6.00
2019-03-22T10:08:48.652Z,5.83
2019-03-22T10:11:22.853Z,5.87
2019-03-22T10:13:53.137Z,5.80
2019-03-22T10:16:25.007Z,6.50
2019-03-22T10:18:55.916Z,5.37
2019-03-22T10:21:28.297Z,5.90
2019-03-22T10:24:01.245Z,5.80
2019-03-22T10:26:39.506Z,5.87
2019-03-22T10:29:11.413Z,5.93
2019-03-22T10:31:41.984Z,5.93
2019-03-22T10:34:13.073Z,5.77
2019-03-22T10:36:43.802Z,6.60
2019-03-22T10:39:14.364Z,6.73
2019-03-22T10:41:47.265Z,5.47
2019-03-22T10:44:17.807Z,5.20
2019-03-22T10:46:49.617Z,5.33
2019-03-22T10:49:20.140Z,4.73
2019-03-22T10:51:56.840Z,4.83
2019-03-22T10:54:23.156Z,5.03
2019-03-22T10:56:53.632Z,5.63
2019-03-22T10:59:26.700Z,5.00
2019-03-22T11:02:03.214Z,4.80
2019-03-22T11:04:29.035Z,4.70
2019-03-22T11:06:59.341Z,4.67
2019-03-22T11:09:29.700Z,4.87
2019-03-22T11:12:00.078Z,4.17
2019-03-22T11:14:30.300Z,4.57
2019-03-22T11:17:00.714Z,4.60
2019-03-22T11:19:30.911Z,4.20
2019-03-22T11:22:01.126Z,4.23
2019-03-22T11:24:31.339Z,3.87
2019-03-22T11:27:01.556Z,3.90
2019-03-22T11:29:31.741Z,4.23
2019-03-22T11:32:01.976Z,4.43
2019-03-22T11:34:32.179Z,4.30
2019-03-22T11:37:03.380Z,4.57
2019-03-22T11:39:33.676Z,4.75
2019-03-22T11:42:04.142Z,4.45
2019-03-22T11:44:34.348Z,5.08
2019-03-22T11:47:04.748Z,4.53
2019-03-22T11:49:36.933Z,4.62
2019-03-22T11:52:07.471Z,4.62
2019-03-22T11:54:37.706Z,5.25
2019-03-22T11:57:08.101Z,4.95
2019-03-22T11:59:38.481Z,4.90
2019-03-22T12:02:08.718Z,5.12
2019-03-22T12:04:39.079Z,4.90
2019-03-22T12:07:09.298Z,5.58
2019-03-22T12:09:39.585Z,5.00
2019-03-22T12:12:09.837Z,4.75
2019-03-22T12:14:40.522Z,5.10
2019-03-22T12:17:10.915Z,5.42
2019-03-22T12:19:41.271Z,6.12
2019-03-22T12:22:12.794Z,5.45
2019-03-22T12:24:45.618Z,5.50
2019-03-22T12:27:15.817Z,5.28
2019-03-22T12:29:45.982Z,5.15
2019-03-22T12:32:16.411Z,5.60
2019-03-22T12:34:46.815Z,4.80
2019-03-22T12:37:17.024Z,5.20
2019-03-22T12:39:47.553Z,5.10
2019-03-22T12:42:18.650Z,5.15
2019-03-22T12:44:49.076Z,4.85
2019-03-22T12:47:19.558Z,4.78
2019-03-22T12:49:50.569Z,5.00
2019-03-22T12:52:21.267Z,5.42
2019-03-22T12:54:52.060Z,5.97
2019-03-22T12:57:22.744Z,5.22
2019-03-22T12:59:57.539Z,5.00
2019-03-22T13:02:30.158Z,5.53
2019-03-22T13:05:07.762Z,5.95
2019-03-22T13:07:38.832Z,5.70
2019-03-22T13:10:16.379Z,5.37
2019-03-22T13:12:47.204Z,6.00
2019-03-22T13:15:20.162Z,5.55
2019-03-22T13:17:53.980Z,6.17
2019-03-22T13:20:24.359Z,6.00
2019-03-22T13:23:00.386Z,6.22
2019-03-22T13:25:32.299Z,5.17
2019-03-22T13:28:02.895Z,5.20
2019-03-22T13:30:37.244Z,5.33
2019-03-22T13:33:09.517Z,5.17
2019-03-22T13:35:39.942Z,5.62
2019-03-22T13:38:10.371Z,5.40
2019-03-22T13:40:41.031Z,5.00
2019-03-22T13:43:11.554Z,5.20
2019-03-22T13:45:42.165Z,4.83
2019-03-22T13:48:13.557Z,4.95
2019-03-22T13:50:44.551Z,4.90
2019-03-22T13:53:15.106Z,4.92
2019-03-22T13:55:46.576Z,5.95
2019-03-22T13:58:17.190Z,5.03
2019-03-22T14:00:49.609Z,5.08
2019-03-22T14:03:19.871Z,4.85
2019-03-22T14:05:50.185Z,5.08
2019-03-22T14:08:20.481Z,4.53
2019-03-22T14:10:50.566Z,4.83
2019-03-22T14:13:20.809Z,4.05
2019-03-22T14:15:50.991Z,4.80
2019-03-22T14:18:21.472Z,4.60
2019-03-22T14:20:52.028Z,4.70
2019-03-22T14:23:22.435Z,4.50
2019-03-22T14:25:52.572Z,4.95
2019-03-22T14:28:23.388Z,4.78
2019-03-22T14:30:53.748Z,4.40
2019-03-22T14:33:25.310Z,3.67
2019-03-22T14:35:55.455Z,4.08
2019-03-22T14:38:26.115Z,4.30
2019-03-22T14:40:56.698Z,4.40
2019-03-22T14:43:26.950Z,4.70
2019-03-22T14:45:57.606Z,4.30
2019-03-22T14:48:27.975Z,4.60
2019-03-22T14:50:58.486Z,3.85
2019-03-22T14:53:28.709Z,4.45
2019-03-22T14:55:59.630Z,4.15
2019-03-22T14:58:30.021Z,4.42
2019-03-22T15:01:00.281Z,4.72
2019-03-22T15:03:30.341Z,4.22
2019-03-22T15:06:00.964Z,4.50
2019-03-22T15:08:31.157Z,4.70
2019-03-22T15:11:01.403Z,4.10
2019-03-22T15:13:56.962Z,3.90
2019-03-22T15:16:54.998Z,4.43
2019-03-22T15:19:43.108Z,4.03
2019-03-22T15:22:33.531Z,4.03
2019-03-22T15:25:22.576Z,4.50
2019-03-22T15:28:11.005Z,3.90
2019-03-22T15:30:59.375Z,4.37
2019-03-22T15:33:55.322Z,4.20
2019-03-22T15:36:44.650Z,4.37
2019-03-22T15:39:49.303Z,4.20
2019-03-22T15:42:19.662Z,4.03
2019-03-22T15:44:50.289Z,3.90
2019-03-22T15:47:20.904Z,4.00
2019-03-22T15:49:51.055Z,3.80
2019-03-22T15:52:21.569Z,3.85
2019-03-22T15:54:54.001Z,3.98
2019-03-22T15:57:24.200Z,4.30
2019-03-22T15:59:54.430Z,4.17
2019-03-22T16:02:24.819Z,4.45
2019-03-22T16:04:55.266Z,4.15
2019-03-22T16:07:25.496Z,3.70
2019-03-22T16:09:55.767Z,3.70
2019-03-22T16:12:25.948Z,4.07
2019-03-22T16:14:56.230Z,3.60
2019-03-22T16:17:26.548Z,3.70
2019-03-22T16:19:56.935Z,3.97
2019-03-22T16:22:27.337Z,3.57
2019-03-22T16:24:57.675Z,3.47
2019-03-22T16:27:28.080Z,3.63
2019-03-22T16:29:58.281Z,3.53
2019-03-22T16:32:28.447Z,3.40
2019-03-22T16:34:58.877Z,3.77
2019-03-22T16:37:30.714Z,3.27
2019-03-22T16:40:00.908Z,3.47
2019-03-22T16:42:31.100Z,3.50
2019-03-22T16:45:01.273Z,3.67
2019-03-22T16:47:34.417Z,3.07
2019-03-22T16:50:08.927Z,3.17
2019-03-22T16:52:39.106Z,3.37
2019-03-22T16:55:12.031Z,3.23
2019-03-22T16:57:45.257Z,3.43
2019-03-22T17:00:16.133Z,3.93
2019-03-22T17:02:46.555Z,3.60
2019-03-22T17:05:17.179Z,3.27
2019-03-22T17:07:47.722Z,3.63
2019-03-22T17:10:18.148Z,3.30
2019-03-22T17:12:48.404Z,3.47
2019-03-22T17:15:18.898Z,3.30
2019-03-22T17:17:49.178Z,3.17
2019-03-22T17:20:19.733Z,3.30
2019-03-22T17:22:50.365Z,3.27
2019-03-22T17:25:20.939Z,3.13
2019-03-22T17:27:51.133Z,3.00
2019-03-22T17:30:21.734Z,2.90
2019-03-22T17:32:51.959Z,3.10
2019-03-22T17:35:22.518Z,3.07
2019-03-22T17:37:52.878Z,2.93
2019-03-22T17:40:23.379Z,2.57
2019-03-22T17:42:53.857Z,3.07
2019-03-22T17:45:24.498Z,3.07
2019-03-22T17:47:54.904Z,2.80
2019-03-22T17:50:25.214Z,3.17
2019-03-22T17:52:55.760Z,2.93
2019-03-22T17:55:26.090Z,3.20
2019-03-22T17:57:57.118Z,2.73
2019-03-22T18:00:27.627Z,2.97
2019-03-22T18:02:58.051Z,3.00
2019-03-22T18:05:28.586Z,2.93
2019-03-22T18:07:59.231Z,2.87
2019-03-22T18:10:29.554Z,3.10
2019-03-22T18:12:59.926Z,3.40
2019-03-22T18:15:31.035Z,3.50
2019-03-22T18:18:01.441Z,3.13
2019-03-22T18:20:31.976Z,3.20
2019-03-22T18:23:02.479Z,3.37
2019-03-22T18:25:33.324Z,3.20
2019-03-22T18:28:03.863Z,3.43
2019-03-22T18:30:34.440Z,3.80
2019-03-22T18:33:04.895Z,4.30
2019-03-22T18:35:35.364Z,3.33
2019-03-22T18:38:06.034Z,3.50
2019-03-22T18:40:36.627Z,4.00
2019-03-22T18:43:07.270Z,4.07
2019-03-22T18:45:37.984Z,3.80
2019-03-22T18:48:08.470Z,3.83
2019-03-22T18:50:39.141Z,4.23
2019-03-22T18:53:09.641Z,4.37
2019-03-22T18:55:40.275Z,4.10
2019-03-22T18:58:10.762Z,3.83
2019-03-22T19:00:59.724Z,3.90
2019-03-22T19:03:30.269Z,4.10
2019-03-22T19:06:01.555Z,3.77
2019-03-22T19:08:31.994Z,4.47
2019-03-22T19:11:02.489Z,4.10
2019-03-22T19:13:33.001Z,4.07
2019-03-22T19:16:03.693Z,4.30
2019-03-22T19:18:34.896Z,4.30
2019-03-22T19:21:05.379Z,4.00
2019-03-22T19:23:35.949Z,4.20
2019-03-22T19:26:06.451Z,3.93
2019-03-22T19:28:36.928Z,3.83
2019-03-22T19:31:07.545Z,4.10
2019-03-22T19:33:37.990Z,4.47
2019-03-22T19:36:09.175Z,3.77
2019-03-22T19:38:39.651Z,4.20
2019-03-22T19:41:10.320Z,3.70
2019-03-22T19:43:42.090Z,4.33
2019-03-22T19:46:13.063Z,4.20
2019-03-22T19:48:43.431Z,3.87
2019-03-22T19:51:14.056Z,3.80
2019-03-22T19:53:47.094Z,4.27
2019-03-22T19:56:17.776Z,4.33
2019-03-22T19:58:48.294Z,4.40
2019-03-22T20:01:18.799Z,4.77
2019-03-22T20:03:49.342Z,4.03
2019-03-22T20:06:19.836Z,4.40
2019-03-22T20:08:50.645Z,4.47
2019-03-22T20:11:21.157Z,4.80
2019-03-22T20:13:51.606Z,4.37
2019-03-22T20:16:22.096Z,4.43
2019-03-22T20:18:52.686Z,4.90
2019-03-22T20:21:23.154Z,5.07
2019-03-22T20:23:53.975Z,5.03
2019-03-22T20:26:24.434Z,5.40
2019-03-22T20:28:54.918Z,5.37
2019-03-22T20:31:25.480Z,5.43
2019-03-22T20:33:56.016Z,5.10
2019-03-22T20:36:26.392Z,5.40
2019-03-22T20:38:56.819Z,5.90
2019-03-22T20:41:27.475Z,5.57
2019-03-22T20:43:57.913Z,5.60
2019-03-22T20:46:29.795Z,5.50
2019-03-22T20:49:00.690Z,5.60
2019-03-22T20:51:31.098Z,5.10
2019-03-22T20:54:01.480Z,5.33
2019-03-22T20:56:32.234Z,5.70
2019-03-22T20:59:02.704Z,5.20
2019-03-22T21:01:33.319Z,5.63
2019-03-22T21:04:03.844Z,5.90
2019-03-22T21:06:34.354Z,4.97
2019-03-22T21:09:06.553Z,5.20
2019-03-22T21:11:37.052Z,5.37
2019-03-22T21:14:07.487Z,5.37
2019-03-22T21:16:39.478Z,6.03
2019-03-22T21:19:09.933Z,5.10
2019-03-22T21:21:40.334Z,5.80
2019-03-22T21:24:12.705Z,5.57
2019-03-22T21:26:44.332Z,5.47
2019-03-22T21:29:14.586Z,6.10
2019-03-22T21:31:44.942Z,5.87
2019-03-22T21:34:15.550Z,5.70
2019-03-22T21:36:47.428Z,5.33
2019-03-22T21:39:17.903Z,5.37
2019-03-22T21:41:48.298Z,5.70
2019-03-22T21:44:18.632Z,5.07
2019-03-22T21:46:48.876Z,4.80
2019-03-22T21:49:19.228Z,5.10
2019-03-22T21:51:49.500Z,4.67
2019-03-22T21:54:20.062Z,4.83
2019-03-22T21:56:50.234Z,5.17
2019-03-22T21:59:20.491Z,4.87
2019-03-22T22:01:50.572Z,4.87
2019-03-22T22:04:20.631Z,4.93
2019-03-22T22:06:50.907Z,5.00
2019-03-22T22:09:21.170Z,4.70
2019-03-22T22:11:51.189Z,5.13
2019-03-22T22:14:21.231Z,5.37
2019-03-22T22:16:51.384Z,5.27
2019-03-22T22:19:21.509Z,5.10
2019-03-22T22:21:51.657Z,5.27
2019-03-22T22:24:22.071Z,5.37
2019-03-22T22:26:52.357Z,4.80
2019-03-22T22:29:22.497Z,5.60
2019-03-22T22:31:52.541Z,5.37
2019-03-22T22:34:22.656Z,6.00
2019-03-22T22:36:52.935Z,4.40
2019-03-22T22:39:25.697Z,4.57
2019-03-22T22:41:55.751Z,4.90
2019-03-22T22:44:25.865Z,5.33
2019-03-22T22:46:56.052Z,5.60
2019-03-22T22:49:26.207Z,5.30
2019-03-22T22:51:56.307Z,5.70
2019-03-22T22:54:26.654Z,5.20
2019-03-22T22:56:56.707Z,5.20
2019-03-22T22:59:26.881Z,5.20
2019-03-22T23:01:57.098Z,5.07
2019-03-22T23:04:27.210Z,5.23
2019-03-22T23:06:57.572Z,5.10
2019-03-22T23:09:27.632Z,5.47
2019-03-22T23:11:57.737Z,5.83
2019-03-22T23:14:27.779Z,5.77
2019-03-22T23:16:57.789Z,6.17
2019-03-22T23:19:27.927Z,5.57
2019-03-22T23:21:58.039Z,5.97
2019-03-22T23:24:28.127Z,6.07
2019-03-22T23:26:58.681Z,6.20
2019-03-22T23:29:28.843Z,5.73
2019-03-22T23:31:58.932Z,6.40
2019-03-22T23:34:28.982Z,6.07
2019-03-22T23:36:59.067Z,5.90
2019-03-22T23:39:29.278Z,5.97
2019-03-22T23:41:59.383Z,6.10
2019-03-22T23:44:29.410Z,6.60
2019-03-22T23:46:59.514Z,5.83
2019-03-22T23:49:29.557Z,7.43
2019-03-22T23:51:59.604Z,6.57
2019-03-22T23:54:29.662Z,6.63
2019-03-22T23:56:59.727Z,6.20
2019-03-22T23:59:32.740Z,6.47
